This is the latest recevied weather packets stored in our database for station/object KC3ROS. If no packets are shown the sender has not sent any weather packets the latest 10 day(s).
| Time | Temp. | Humidity | Pressure | Rain* | Wind** | Luminosity | Snow |
|---|---|---|---|---|---|---|---|
| 1777907961 | 17.22° C | 52% | 1009.1 hPa | 0 mm | - | 753 W/m² | - |
| 1777907656 | 16.11° C | 53% | 1009.1 hPa | 0 mm | - | 783 W/m² | - |
| 1777907352 | 16.67° C | 52% | 1009.2 hPa | 0 mm | - | 772 W/m² | - |
| 1777907049 | 16.67° C | 51% | 1009.1 hPa | 0 mm | - | 759 W/m² | - |
| 1777906747 | 16.67° C | 56% | 1009.2 hPa | 0 mm | - | 751 W/m² | - |
| 1777906443 | 16.11° C | 53% | 1009.1 hPa | 0 mm | - | 751 W/m² | - |
| 1777906140 | 16.67° C | 53% | 1009.4 hPa | 0 mm | - | 738 W/m² | - |
| 1777905836 | 16.67° C | 55% | 1009.2 hPa | 0 mm | - | 724 W/m² | - |
| 1777905533 | 16.11° C | 55% | 1009.1 hPa | 0 mm | - | 710 W/m² | - |
| 1777905230 | 16.11° C | 53% | 1009.2 hPa | 0 mm | - | 697 W/m² | - |
| 1777904928 | 16.11° C | 54% | 1009.2 hPa | 0 mm | - | 681 W/m² | - |
| 1777904624 | 16.11° C | 53% | 1009.1 hPa | 0 mm | - | 665 W/m² | - |
| 1777904322 | 16.11° C | 51% | 1009 hPa | 0 mm | - | 648 W/m² | - |
| 1777904019 | 15.56° C | 53% | 1009.1 hPa | 0 mm | - | 631 W/m² | - |
| 1777903716 | 15° C | 54% | 1008.9 hPa | 0 mm | - | 618 W/m² | - |
| 1777903411 | 15° C | 54% | 1009.1 hPa | 0 mm | - | 603 W/m² | - |
| 1777903108 | 15° C | 53% | 1009.2 hPa | 0 mm | - | 589 W/m² | - |
| 1777902804 | 15° C | 54% | 1009.5 hPa | 0 mm | - | 578 W/m² | - |
| 1777902502 | 15° C | 55% | 1009.4 hPa | 0 mm | - | 565 W/m² | - |
| 1777902199 | 15° C | 54% | 1009.4 hPa | 0 mm | - | 550 W/m² | - |
| 1777901897 | 14.44° C | 53% | 1009.6 hPa | 0 mm | - | 537 W/m² | - |
| 1777901594 | 14.44° C | 53% | 1009.5 hPa | 0 mm | - | 526 W/m² | - |
| 1777901291 | 14.44° C | 55% | 1009.4 hPa | 0 mm | - | 514 W/m² | - |
| 1777900989 | 13.89° C | 56% | 1009.6 hPa | 0 mm | - | 500 W/m² | - |
| 1777900687 | 13.89° C | 56% | 1009.3 hPa | 0 mm | - | 486 W/m² | - |
* Rain latest hour (hover to see other rain measurements)
** Current wind speed in m/s (hover to see current wind gust speed)